Time;durP1;ratioP1;P1;durP2;ratioP2;P2;SDS_P1;SDS_P2;PMS_P1;PMS_P2;Temp;Humidity;BMP_temperature;BMP_pressure;BME280_temperature;BME280_humidity;BME280_pressure;Samples;Min_cycle;Max_cycle;Signal;HPM_P1;HPM_P2
2023/06/08 00:00:12;;;;;;;115.18;35.78;;;17.90;99.90;;;;;;5048489;28;20033;-64
2023/06/08 00:02:40;;;;;;;116.35;34.08;;;17.90;99.90;;;;;;5032289;28;20103;-64
2023/06/08 00:05:07;;;;;;;57.70;32.58;;;17.90;99.90;;;;;;5053608;28;20044;-64
2023/06/08 00:07:34;;;;;;;80.05;33.00;;;17.90;99.90;;;;;;5076256;28;20500;-65
2023/06/08 00:10:00;;;;;;;59.55;29.40;;;17.90;99.90;;;;;;5067370;28;20512;-64
2023/06/08 00:12:27;;;;;;;56.28;32.10;;;17.90;99.90;;;;;;5056450;28;20061;-64
2023/06/08 00:14:53;;;;;;;54.35;29.80;;;17.90;99.90;;;;;;5051218;28;20076;-64
2023/06/08 00:17:19;;;;;;;76.35;29.33;;;18.00;99.90;;;;;;5057877;28;20120;-64
2023/06/08 00:19:45;;;;;;;63.00;27.75;;;18.00;99.90;;;;;;5020197;28;20060;-64
2023/06/08 00:22:12;;;;;;;48.22;27.88;;;18.00;99.90;;;;;;5038554;28;21100;-65
2023/06/08 00:24:38;;;;;;;54.20;29.67;;;18.00;99.90;;;;;;5021516;28;20481;-64
2023/06/08 00:27:06;;;;;;;57.35;29.80;;;18.00;99.90;;;;;;4995696;28;20144;-64
2023/06/08 00:29:33;;;;;;;61.95;32.03;;;18.00;99.90;;;;;;5013993;28;20045;-64
2023/06/08 00:31:59;;;;;;;67.78;30.20;;;17.90;99.90;;;;;;5005913;28;20053;-64
2023/06/08 00:34:27;;;;;;;55.40;29.50;;;17.80;99.90;;;;;;4988257;28;20047;-64
2023/06/08 00:36:55;;;;;;;63.22;32.78;;;17.80;99.90;;;;;;4992042;28;20081;-65
2023/06/08 00:39:22;;;;;;;136.32;33.72;;;17.80;99.90;;;;;;4996675;28;20050;-64
2023/06/08 00:41:48;;;;;;;89.70;33.78;;;17.70;99.90;;;;;;4976776;28;20054;-64
2023/06/08 00:44:14;;;;;;;68.53;31.35;;;17.70;99.90;;;;;;4952201;28;20119;-65
2023/06/08 00:46:41;;;;;;;168.80;37.58;;;17.70;99.90;;;;;;5053269;28;20397;-64
2023/06/08 00:49:08;;;;;;;115.68;35.25;;;17.60;99.90;;;;;;5020310;28;20364;-64
2023/06/08 00:51:39;;;;;;;71.65;31.25;;;17.60;99.90;;;;;;5032138;28;20053;-64
2023/06/08 00:54:10;;;;;;;62.97;31.92;;;17.80;99.90;;;;;;5004646;28;20048;-65
2023/06/08 00:56:38;;;;;;;69.47;32.30;;;17.90;99.90;;;;;;4967957;28;20409;-65
2023/06/08 00:59:05;;;;;;;87.22;31.50;;;18.00;99.90;;;;;;4943064;28;20212;-64
2023/06/08 01:01:35;;;;;;;85.80;32.58;;;18.00;99.90;;;;;;4929749;28;20048;-64
2023/06/08 01:04:05;;;;;;;60.10;32.13;;;18.00;99.90;;;;;;4907776;28;20046;-64
2023/06/08 01:06:45;;;;;;;63.00;31.47;;;17.90;99.90;;;;;;4925964;28;20485;-64
2023/06/08 01:09:26;;;;;;;81.93;34.13;;;17.90;99.90;;;;;;4920342;28;20054;-64
2023/06/08 01:12:20;;;;;;;130.15;34.53;;;18.00;99.90;;;;;;4896551;28;20312;-64
2023/06/08 01:14:58;;;;;;;73.32;33.60;;;17.90;99.90;;;;;;4966378;28;20105;-65
2023/06/08 01:17:38;;;;;;;73.57;33.72;;;17.90;99.90;;;;;;4973951;28;20058;-64
2023/06/08 01:20:15;;;;;;;;;;;17.90;99.90;;;;;;4976974;28;20092;-65
2023/06/08 01:23:00;;;;;;;93.50;34.33;;;18.00;99.90;;;;;;4931958;28;20265;-65
2023/06/08 01:25:30;;;;;;;76.57;32.22;;;18.00;99.90;;;;;;4903647;28;20044;-65
2023/06/08 01:28:13;;;;;;;105.03;36.33;;;17.80;99.90;;;;;;4950544;28;20046;-65
2023/06/08 01:30:49;;;;;;;94.38;34.97;;;17.50;99.90;;;;;;4899929;28;20875;-65
2023/06/08 01:33:21;;;;;;;108.32;37.03;;;17.40;99.90;;;;;;4860678;28;22769;-65
2023/06/08 01:36:00;;;;;;;82.28;33.33;;;17.50;99.90;;;;;;4872334;28;23453;-65
2023/06/08 01:38:51;;;;;;;79.78;33.65;;;17.60;99.90;;;;;;4913479;28;32258;-64
2023/06/08 01:41:26;;;;;;;111.10;42.30;;;17.60;99.90;;;;;;4951894;28;33547;-64
2023/06/08 01:43:55;;;;;;;136.60;50.67;;;17.70;99.90;;;;;;4960572;28;35863;-65
2023/06/08 01:46:28;;;;;;;138.38;44.20;;;17.60;99.90;;;;;;4921904;28;38182;-65
2023/06/08 01:48:58;;;;;;;128.95;45.95;;;17.60;99.90;;;;;;4921884;28;39134;-65
2023/06/08 01:51:26;;;;;;;116.57;41.70;;;17.60;99.90;;;;;;4910312;28;41851;-65
2023/06/08 01:54:03;;;;;;;104.05;38.35;;;17.60;99.90;;;;;;4887422;28;42734;-64
2023/06/08 01:56:34;;;;;;;91.32;37.55;;;17.50;99.90;;;;;;4928100;28;44601;-64
2023/06/08 01:59:02;;;;;;;93.75;37.05;;;17.50;99.90;;;;;;4903675;28;46487;-64
2023/06/08 02:01:28;;;;;;;102.47;38.17;;;17.60;99.90;;;;;;4965514;28;48589;-65
2023/06/08 02:03:54;;;;;;;106.93;40.90;;;17.60;99.90;;;;;;4977726;28;49115;-65
2023/06/08 02:06:20;;;;;;;133.32;48.20;;;17.50;99.90;;;;;;4959836;28;49781;-64
2023/06/08 02:08:46;;;;;;;136.00;47.95;;;17.40;99.90;;;;;;4911192;28;54741;-64
2023/06/08 02:11:12;;;;;;;123.95;41.75;;;17.40;99.90;;;;;;4926311;28;55811;-64
2023/06/08 02:13:42;;;;;;;116.65;40.63;;;17.30;99.90;;;;;;4945281;28;49062;-65
2023/06/08 02:16:09;;;;;;;99.70;39.40;;;17.40;99.90;;;;;;4933499;28;49761;-65
2023/06/08 02:18:39;;;;;;;107.75;43.40;;;17.50;99.90;;;;;;4950934;28;35363;-65
2023/06/08 02:21:05;;;;;;;110.13;44.53;;;17.60;99.90;;;;;;4972299;28;62412;-65
2023/06/08 02:23:31;;;;;;;119.57;47.08;;;17.70;99.90;;;;;;4970727;28;62435;-65
2023/06/08 02:25:57;;;;;;;120.10;49.78;;;17.70;99.90;;;;;;4980860;28;64995;-65
2023/06/08 02:28:23;;;;;;;139.75;51.22;;;17.60;99.90;;;;;;4973069;28;67104;-65
2023/06/08 02:30:49;;;;;;;124.35;51.20;;;17.60;99.90;;;;;;4952651;28;68739;-65
2023/06/08 02:33:15;;;;;;;126.53;50.45;;;17.60;99.90;;;;;;4910558;28;50011;-65
2023/06/08 02:35:42;;;;;;;111.97;46.47;;;17.60;99.90;;;;;;4928390;28;49906;-65
2023/06/08 02:38:08;;;;;;;94.53;40.97;;;17.50;99.90;;;;;;4961178;28;50138;-64
2023/06/08 02:40:35;;;;;;;95.63;40.67;;;17.50;99.90;;;;;;4975315;28;74858;-65
2023/06/08 02:43:00;;;;;;;100.10;43.13;;;17.50;99.90;;;;;;4900591;28;77498;-64
2023/06/08 02:45:28;;;;;;;99.93;43.92;;;17.40;99.90;;;;;;4914174;28;80047;-64
2023/06/08 02:47:57;;;;;;;94.72;38.50;;;17.40;99.90;;;;;;4965484;28;78016;-65
2023/06/08 02:50:23;;;;;;;89.50;37.55;;;17.50;99.90;;;;;;4938407;28;55009;-65
2023/06/08 02:52:50;;;;;;;91.32;39.08;;;17.50;99.90;;;;;;4976487;28;79044;-65
2023/06/08 02:55:16;;;;;;;73.10;37.50;;;17.50;99.90;;;;;;4808256;29;79662;-65
2023/06/08 02:57:44;;;;;;;70.72;34.95;;;17.50;99.90;;;;;;4869491;28;77903;-65
2023/06/08 03:00:13;;;;;;;62.92;34.28;;;17.50;99.90;;;;;;4920243;28;73306;-65
2023/06/08 03:02:52;;;;;;;68.78;34.80;;;17.30;99.90;;;;;;4905915;28;68137;-65
2023/06/08 03:05:20;;;;;;;92.20;40.38;;;17.40;99.90;;;;;;4872983;28;60945;-64
2023/06/08 03:07:47;;;;;;;89.28;41.15;;;17.30;99.90;;;;;;4867538;28;55832;-65
2023/06/08 03:10:13;;;;;;;59.67;32.58;;;17.30;99.90;;;;;;4870713;28;52163;-65
2023/06/08 03:12:39;;;;;;;57.15;29.83;;;17.20;99.90;;;;;;4876473;28;29584;-65
2023/06/08 03:15:06;;;;;;;54.38;30.27;;;17.30;99.90;;;;;;4858628;28;30120;-65
2023/06/08 03:17:34;;;;;;;63.65;32.92;;;17.30;99.90;;;;;;4835649;28;49740;-64
2023/06/08 03:20:00;;;;;;;59.13;31.17;;;17.20;99.90;;;;;;4882035;28;24991;-65
2023/06/08 03:22:29;;;;;;;56.75;31.17;;;17.20;99.90;;;;;;4916837;28;49517;-65
2023/06/08 03:25:03;;;;;;;59.05;32.17;;;17.20;99.90;;;;;;4920284;28;30972;-65
2023/06/08 03:27:29;;;;;;;56.33;30.42;;;17.30;99.90;;;;;;4909685;28;30039;-65
2023/06/08 03:29:58;;;;;;;46.85;28.58;;;17.30;99.90;;;;;;4907472;28;25025;-64
2023/06/08 03:32:35;;;;;;;38.80;24.35;;;17.30;99.90;;;;;;4876695;28;49008;-64
2023/06/08 03:35:01;;;;;;;38.83;22.42;;;17.20;99.90;;;;;;4875389;28;32630;-65
2023/06/08 03:37:28;;;;;;;38.28;23.02;;;17.20;99.90;;;;;;4837707;28;33006;-65
2023/06/08 03:39:54;;;;;;;39.10;22.95;;;17.10;99.90;;;;;;4853693;28;32939;-65
2023/06/08 03:42:20;;;;;;;41.53;24.40;;;17.20;99.90;;;;;;4851637;28;33898;-65
2023/06/08 03:44:51;;;;;;;;;;;17.20;99.90;;;;;;4841128;28;34077;-65
2023/06/08 03:47:18;;;;;;;33.70;20.98;;;17.10;99.90;;;;;;4841585;28;25005;-65
2023/06/08 03:49:44;;;;;;;33.22;21.25;;;17.20;99.90;;;;;;4900031;28;24976;-65
2023/06/08 03:52:12;;;;;;;39.63;24.58;;;17.20;99.90;;;;;;4873574;28;49384;-65
2023/06/08 03:54:39;;;;;;;32.13;21.75;;;17.10;99.90;;;;;;4921537;28;35915;-65
2023/06/08 03:57:06;;;;;;;31.35;22.60;;;17.20;99.90;;;;;;4875682;28;49722;-65
2023/06/08 03:59:32;;;;;;;34.33;23.02;;;17.20;99.90;;;;;;4848638;28;25019;-65
2023/06/08 04:01:58;;;;;;;38.28;24.70;;;17.20;99.90;;;;;;4834565;28;37569;-65
2023/06/08 04:04:24;;;;;;;37.95;25.25;;;17.30;99.90;;;;;;4843446;28;37010;-65
2023/06/08 04:06:51;;;;;;;37.25;24.17;;;17.30;99.90;;;;;;4857373;28;25067;-65
2023/06/08 04:09:17;;;;;;;32.17;23.08;;;17.40;99.90;;;;;;4865680;28;49478;-65
2023/06/08 04:11:43;;;;;;;40.17;24.38;;;17.50;99.90;;;;;;4876508;28;32748;-65
2023/06/08 04:14:09;;;;;;;45.50;26.95;;;17.50;99.90;;;;;;4922489;28;33685;-65
2023/06/08 04:16:36;;;;;;;43.10;24.58;;;17.30;99.90;;;;;;4870947;28;49295;-65
2023/06/08 04:19:03;;;;;;;45.85;25.58;;;17.40;99.90;;;;;;4907989;28;39196;-65
2023/06/08 04:21:29;;;;;;;40.92;25.63;;;17.60;99.90;;;;;;4936237;28;38946;-65
2023/06/08 04:24:02;;;;;;;41.78;26.13;;;17.60;99.90;;;;;;4887501;28;49002;-65
2023/06/08 04:26:32;;;;;;;45.22;26.33;;;17.60;99.90;;;;;;4856642;28;41253;-65
2023/06/08 04:31:51;;;;;;;43.45;25.00;;;17.50;99.90;;;;;;5152427;27;20134;-65
2023/06/08 04:34:18;;;;;;;42.78;25.88;;;17.70;99.90;;;;;;5113274;27;20038;-65
2023/06/08 04:36:44;;;;;;;49.65;27.40;;;17.80;99.90;;;;;;5132781;27;20488;-65
2023/06/08 04:39:12;;;;;;;52.13;28.87;;;17.90;99.90;;;;;;5029580;28;1683347;-65
2023/06/08 04:41:41;;;;;;;52.17;29.50;;;17.90;99.90;;;;;;5071984;28;20266;-65
2023/06/08 04:44:08;;;;;;;47.20;30.00;;;18.00;99.90;;;;;;5076236;28;20055;-65
2023/06/08 04:46:37;;;;;;;62.25;33.78;;;18.00;99.90;;;;;;5069945;27;20044;-65
2023/06/08 04:49:04;;;;;;;65.30;34.30;;;18.10;99.90;;;;;;5054652;28;20044;-65
2023/06/08 04:51:30;;;;;;;60.05;34.45;;;18.00;99.90;;;;;;5100174;27;20043;-65
2023/06/08 04:53:59;;;;;;;85.40;43.78;;;18.20;99.90;;;;;;5100536;27;20292;-65
2023/06/08 04:56:29;;;;;;;73.05;40.22;;;18.10;99.90;;;;;;5095791;27;20077;-65
2023/06/08 04:58:58;;;;;;;81.50;40.10;;;18.20;99.90;;;;;;5111263;28;20105;-65
2023/06/08 05:01:24;;;;;;;73.47;38.70;;;18.40;99.90;;;;;;5055167;28;20511;-65
2023/06/08 05:03:53;;;;;;;70.45;37.53;;;18.40;99.90;;;;;;5070758;28;20055;-65
2023/06/08 05:06:19;;;;;;;64.05;36.17;;;18.50;99.90;;;;;;5017130;28;20407;-65
2023/06/08 05:08:45;;;;;;;67.70;38.33;;;18.60;99.90;;;;;;5026264;28;20047;-65
2023/06/08 05:11:12;;;;;;;68.82;37.70;;;18.60;99.90;;;;;;5056909;28;20103;-65
2023/06/08 05:13:38;;;;;;;61.33;36.53;;;18.60;99.90;;;;;;5054893;28;20034;-65
2023/06/08 05:16:04;;;;;;;59.08;33.40;;;18.60;99.90;;;;;;4996210;28;21566;-65
2023/06/08 05:38:42;;;;;;;67.05;42.50;;;18.60;99.90;;;;;;5132594;27;20364;-65
2023/06/08 05:41:08;;;;;;;72.75;48.13;;;19.00;99.90;;;;;;5132638;27;20369;-65
2023/06/08 05:43:35;;;;;;;79.47;44.97;;;19.00;99.90;;;;;;5130731;28;20039;-66
2023/06/08 05:46:01;;;;;;;68.10;42.72;;;19.10;99.90;;;;;;5132452;28;20024;-66
2023/06/08 05:48:27;;;;;;;68.72;45.03;;;19.00;99.90;;;;;;5132600;28;20429;-65
2023/06/08 05:50:53;;;;;;;58.67;38.72;;;19.00;99.90;;;;;;5132199;27;20472;-65
2023/06/08 05:53:18;;;;;;;58.28;38.65;;;19.20;99.90;;;;;;5132174;28;20047;-66
2023/06/08 05:55:45;;;;;;;68.30;41.72;;;19.20;99.90;;;;;;5132447;27;20023;-65
2023/06/08 05:58:12;;;;;;;74.45;42.08;;;19.40;99.90;;;;;;5132269;28;20480;-65
2023/06/08 06:00:37;;;;;;;68.55;42.80;;;19.60;99.90;;;;;;5132019;27;20227;-65
2023/06/08 06:03:03;;;;;;;72.93;45.20;;;19.70;99.90;;;;;;5132215;27;20066;-65
2023/06/08 06:05:30;;;;;;;65.75;41.10;;;19.70;99.90;;;;;;5131971;27;20027;-65
2023/06/08 06:07:56;;;;;;;63.90;41.40;;;19.80;99.90;;;;;;5131927;27;20024;-65
2023/06/08 06:10:21;;;;;;;69.70;43.78;;;19.80;99.90;;;;;;5131963;27;20502;-66
2023/06/08 06:12:47;;;;;;;74.45;43.83;;;19.90;99.90;;;;;;5131962;27;20054;-65
2023/06/08 06:15:14;;;;;;;70.45;43.30;;;19.90;99.90;;;;;;5132339;27;20110;-65
2023/06/08 06:17:40;;;;;;;67.47;43.13;;;19.90;99.90;;;;;;5132049;28;20088;-65
2023/06/08 06:20:07;;;;;;;65.03;41.75;;;20.00;99.90;;;;;;5130285;28;20460;-65
2023/06/08 06:22:33;;;;;;;68.88;41.88;;;20.00;99.90;;;;;;5130370;27;20015;-65
2023/06/08 06:24:58;;;;;;;65.85;42.53;;;19.40;99.90;;;;;;5131705;27;20433;-65
2023/06/08 06:27:25;;;;;;;65.07;39.42;;;19.60;99.90;;;;;;5131548;27;20488;-65
2023/06/08 06:29:51;;;;;;;66.80;40.15;;;19.60;99.90;;;;;;5131498;27;20100;-65
2023/06/08 06:32:17;;;;;;;56.78;38.42;;;19.80;99.90;;;;;;5131567;27;20027;-65
2023/06/08 06:34:46;;;;;;;50.42;33.60;;;19.90;99.90;;;;;;5131386;27;20022;-65
2023/06/08 06:37:13;;;;;;;57.03;38.05;;;20.10;99.90;;;;;;5131292;27;20082;-65
2023/06/08 06:39:39;;;;;;;56.00;35.75;;;20.10;99.90;;;;;;5117860;28;20449;-65
2023/06/08 06:42:06;;;;;;;62.25;38.30;;;20.00;99.90;;;;;;5116407;28;20032;-65
2023/06/08 06:44:58;;;;;;;;;;;20.10;99.90;;;;;;5116827;28;20027;-65
2023/06/08 06:47:24;;;;;;;48.65;34.72;;;20.30;99.90;;;;;;5117535;28;19946;-65
2023/06/08 06:49:50;;;;;;;50.38;34.65;;;20.20;99.90;;;;;;5117633;28;20055;-65
2023/06/08 06:52:16;;;;;;;52.40;33.50;;;20.50;99.90;;;;;;5117480;28;20381;-65
2023/06/08 06:54:42;;;;;;;51.80;35.20;;;20.70;99.90;;;;;;5117458;28;20081;-65
2023/06/08 06:57:08;;;;;;;46.00;33.30;;;20.90;99.90;;;;;;5117764;28;20133;-65
2023/06/08 06:59:34;;;;;;;48.65;31.35;;;21.00;99.90;;;;;;5117263;28;20114;-65
2023/06/08 07:02:00;;;;;;;50.67;33.55;;;21.30;99.90;;;;;;5117231;28;20028;-65
2023/06/08 07:04:26;;;;;;;42.60;30.50;;;21.50;99.90;;;;;;5117425;28;20039;-65
2023/06/08 07:06:53;;;;;;;44.30;33.38;;;21.70;99.90;;;;;;5117148;28;20039;-65
2023/06/08 07:09:22;;;;;;;43.85;32.22;;;22.00;99.90;;;;;;5116913;28;20024;-65
2023/06/08 07:11:48;;;;;;;45.17;33.17;;;22.20;99.90;;;;;;5117118;28;20148;-65
2023/06/08 07:14:15;;;;;;;46.15;34.22;;;22.50;99.90;;;;;;5116651;28;20256;-65
2023/06/08 07:16:41;;;;;;;49.47;36.13;;;22.50;99.90;;;;;;5117787;28;20059;-65
2023/06/08 07:19:07;;;;;;;51.20;35.28;;;22.50;99.90;;;;;;5117769;28;20048;-65
2023/06/08 07:21:38;;;;;;;51.65;35.50;;;22.60;99.90;;;;;;5117658;28;20028;-65
2023/06/08 07:24:07;;;;;;;48.65;36.65;;;22.70;99.90;;;;;;5117465;28;20043;-65
2023/06/08 07:26:33;;;;;;;55.22;35.42;;;22.60;99.90;;;;;;5117466;28;20042;-65
2023/06/08 07:29:01;;;;;;;53.55;36.25;;;22.90;99.90;;;;;;5117491;28;20120;-65
2023/06/08 07:31:27;;;;;;;58.03;37.15;;;23.10;99.90;;;;;;5117545;28;20030;-66
2023/06/08 07:33:55;;;;;;;55.92;35.22;;;23.10;99.90;;;;;;5117338;28;20481;-65
2023/06/08 07:36:22;;;;;;;57.03;35.75;;;23.20;99.90;;;;;;5117191;28;20077;-65
2023/06/08 07:38:51;;;;;;;49.40;33.97;;;23.40;99.90;;;;;;5117331;28;20035;-66
2023/06/08 07:41:18;;;;;;;49.95;35.47;;;23.10;99.90;;;;;;5117449;28;20088;-65
2023/06/08 07:43:44;;;;;;;54.20;37.25;;;23.60;99.90;;;;;;5117227;28;20102;-65
2023/06/08 07:46:10;;;;;;;51.88;35.95;;;24.10;99.90;;;;;;5116811;28;20444;-66
2023/06/08 07:48:36;;;;;;;48.50;34.03;;;24.20;99.90;;;;;;5116508;28;20024;-66
2023/06/08 07:51:02;;;;;;;49.70;33.85;;;24.00;99.90;;;;;;5114712;28;20380;-66
2023/06/08 07:53:35;;;;;;;47.00;34.03;;;23.90;99.90;;;;;;5116268;28;20061;-65
2023/06/08 07:56:02;;;;;;;60.17;39.92;;;23.00;99.90;;;;;;5116351;28;20026;-66
2023/06/08 07:58:29;;;;;;;63.47;38.80;;;23.40;99.90;;;;;;5116902;28;20038;-65
2023/06/08 08:00:55;;;;;;;63.08;39.88;;;24.10;99.90;;;;;;5116907;28;20513;-65
2023/06/08 08:03:21;;;;;;;57.30;37.80;;;24.00;99.90;;;;;;5117082;28;20368;-65
2023/06/08 08:05:50;;;;;;;53.72;36.72;;;24.50;99.90;;;;;;5116851;28;20023;-65
2023/06/08 08:08:16;;;;;;;58.40;34.83;;;24.70;99.90;;;;;;5116869;28;20169;-65
2023/06/08 08:10:43;;;;;;;54.33;33.88;;;25.00;99.90;;;;;;5116747;28;20027;-65
2023/06/08 08:13:09;;;;;;;44.63;30.52;;;25.60;99.90;;;;;;5116550;28;20496;-65
2023/06/08 08:15:35;;;;;;;44.25;27.90;;;26.20;99.90;;;;;;5116784;28;20027;-65
2023/06/08 08:18:02;;;;;;;44.25;27.98;;;26.40;99.90;;;;;;5116800;28;20024;-65
2023/06/08 08:20:28;;;;;;;43.42;27.48;;;26.40;99.90;;;;;;5116326;28;20034;-65
2023/06/08 08:22:54;;;;;;;39.90;24.90;;;27.00;99.90;;;;;;5116568;28;20028;-65
2023/06/08 08:25:21;;;;;;;37.33;24.38;;;26.10;99.90;;;;;;5116482;28;20031;-64
2023/06/08 08:27:50;;;;;;;44.00;25.50;;;25.70;99.90;;;;;;5114876;28;20058;-64
2023/06/08 08:30:18;;;;;;;34.67;24.60;;;25.60;99.90;;;;;;5116296;28;20338;-65
2023/06/08 08:32:44;;;;;;;41.85;25.85;;;25.50;99.90;;;;;;5116497;28;20023;-65
2023/06/08 08:35:14;;;;;;;44.45;26.52;;;25.80;99.90;;;;;;5116064;28;20080;-64
2023/06/08 08:37:42;;;;;;;35.60;24.17;;;26.50;99.90;;;;;;5115923;28;20142;-64
2023/06/08 08:40:11;;;;;;;33.80;23.48;;;26.70;99.90;;;;;;5114987;28;20272;-64
2023/06/08 08:42:46;;;;;;;33.63;22.88;;;27.10;99.90;;;;;;5116028;28;20038;-64
2023/06/08 08:45:15;;;;;;;32.47;23.98;;;27.50;99.90;;;;;;5116266;28;20106;-64
2023/06/08 08:47:42;;;;;;;33.45;23.23;;;27.40;99.90;;;;;;5116164;28;20028;-65
2023/06/08 08:50:16;;;;;;;36.72;23.33;;;27.40;99.90;;;;;;5115675;28;20027;-64
2023/06/08 08:52:48;;;;;;;37.00;23.17;;;27.80;99.90;;;;;;5115485;28;20020;-64
2023/06/08 08:55:14;;;;;;;38.65;25.40;;;28.20;99.90;;;;;;5115342;28;20487;-64
2023/06/08 08:57:41;;;;;;;30.70;21.05;;;28.50;99.90;;;;;;5114926;28;20031;-64
2023/06/08 09:00:17;;;;;;;32.22;23.63;;;28.50;99.90;;;;;;5115527;28;20035;-64
2023/06/08 09:02:43;;;;;;;30.38;22.08;;;28.90;99.90;;;;;;5114759;28;20088;-64
2023/06/08 09:05:10;;;;;;;29.50;20.90;;;28.70;99.90;;;;;;5115220;28;20035;-63
2023/06/08 09:07:37;;;;;;;23.35;18.88;;;29.10;99.90;;;;;;5115066;28;20334;-64
2023/06/08 09:10:22;;;;;;;31.48;20.95;;;28.80;99.90;;;;;;5114817;28;20077;-64
2023/06/08 09:12:50;;;;;;;31.88;22.75;;;29.30;99.90;;;;;;5114270;28;20469;-64
2023/06/08 09:15:36;;;;;;;34.35;22.40;;;29.70;99.90;;;;;;5114617;28;20024;-65
2023/06/08 09:18:15;;;;;;;26.75;18.95;;;29.30;99.90;;;;;;5114717;28;20024;-65
2023/06/08 09:20:45;;;;;;;32.28;20.52;;;29.30;99.90;;;;;;5114860;28;20047;-65
2023/06/08 09:23:20;;;;;;;25.30;18.20;;;29.40;99.90;;;;;;5114913;28;20035;-65
2023/06/08 09:25:47;;;;;;;24.83;18.50;;;28.60;99.90;;;;;;5114538;28;20396;-64
2023/06/08 09:28:18;;;;;;;28.73;21.80;;;28.80;99.90;;;;;;5114913;28;20155;-64
2023/06/08 09:30:48;;;;;;;32.67;21.58;;;29.10;99.90;;;;;;5114795;28;20024;-65
2023/06/08 09:33:21;;;;;;;28.77;19.33;;;28.70;99.90;;;;;;5113276;28;20028;-66
2023/06/08 09:36:15;;;;;;;31.15;19.40;;;28.50;99.90;;;;;;5114933;28;20066;-66
2023/06/08 09:38:42;;;;;;;24.38;17.70;;;27.90;99.90;;;;;;5115197;28;20468;-66
2023/06/08 09:41:21;;;;;;;24.13;18.17;;;27.00;99.90;;;;;;5114599;28;20388;-65
2023/06/08 09:43:49;;;;;;;27.90;20.08;;;27.20;99.90;;;;;;5114869;28;20028;-65
2023/06/08 09:46:34;;;;;;;29.05;19.55;;;26.70;99.90;;;;;;5114507;28;20434;-65
2023/06/08 09:49:02;;;;;;;27.88;20.52;;;26.90;99.90;;;;;;5114556;28;20381;-65
2023/06/08 09:51:36;;;;;;;32.67;23.70;;;26.80;99.90;;;;;;5114611;28;20468;-65
2023/06/08 09:54:03;;;;;;;26.33;19.40;;;26.50;99.90;;;;;;5114617;28;20076;-65
2023/06/08 09:56:30;;;;;;;28.70;21.90;;;26.80;99.90;;;;;;5114565;28;20472;-65
2023/06/08 09:59:02;;;;;;;31.52;21.13;;;27.00;99.90;;;;;;5114468;28;20407;-65
2023/06/08 10:01:43;;;;;;;28.58;21.67;;;26.90;99.90;;;;;;5114642;28;20497;-62
2023/06/08 10:04:14;;;;;;;;;;;27.10;99.90;;;;;;5114795;28;20027;-62
2023/06/08 10:06:44;;;;;;;32.17;21.80;;;27.20;99.90;;;;;;5114897;28;19927;-62
2023/06/08 10:09:17;;;;;;;27.55;22.50;;;26.70;99.90;;;;;;5113993;28;20477;-62
2023/06/08 10:11:50;;;;;;;23.70;17.08;;;27.30;99.90;;;;;;5113793;28;20365;-62
2023/06/08 10:14:17;;;;;;;23.13;18.30;;;27.60;99.90;;;;;;5116905;28;20027;-62
2023/06/08 10:16:44;;;;;;;20.45;16.70;;;28.10;99.90;;;;;;5118522;28;20106;-62
2023/06/08 10:19:11;;;;;;;19.08;16.55;;;28.70;99.90;;;;;;5118234;28;20031;-62
2023/06/08 10:21:37;;;;;;;18.95;14.23;;;28.80;99.90;;;;;;5117618;28;20042;-61
2023/06/08 10:24:04;;;;;;;16.75;13.93;;;29.50;99.90;;;;;;5117927;28;20028;-61
2023/06/08 10:26:30;;;;;;;15.52;11.70;;;30.00;99.90;;;;;;5117851;28;20429;-62
2023/06/08 10:29:26;;;;;;;15.82;13.38;;;29.70;99.90;;;;;;5114559;28;20016;-62
2023/06/08 10:31:52;;;;;;;21.52;14.20;;;29.40;99.90;;;;;;5116901;28;20032;-62
2023/06/08 10:34:18;;;;;;;15.50;13.30;;;29.70;99.90;;;;;;5117954;28;20032;-63
2023/06/08 10:36:44;;;;;;;16.63;13.35;;;29.60;99.90;;;;;;5117509;28;20067;-63
2023/06/08 10:39:13;;;;;;;16.45;13.63;;;29.60;99.90;;;;;;5117891;28;20066;-63
2023/06/08 10:41:57;;;;;;;19.33;13.52;;;29.00;99.90;;;;;;5117714;28;20020;-63
2023/06/08 10:44:36;;;;;;;14.50;11.25;;;28.80;99.90;;;;;;5117752;28;20036;-63
2023/06/08 10:47:05;;;;;;;16.75;10.43;;;27.80;99.90;;;;;;5117546;28;20576;-62
2023/06/08 10:49:38;;;;;;;12.98;10.38;;;27.10;99.90;;;;;;5117401;28;20016;-62
2023/06/08 10:52:06;;;;;;;14.73;11.43;;;27.10;99.90;;;;;;5117614;28;20050;-62
2023/06/08 10:54:56;;;;;;;12.73;10.57;;;26.90;99.90;;;;;;5117575;28;20216;-62
2023/06/08 10:57:41;;;;;;;14.88;12.52;;;27.10;99.90;;;;;;5117592;28;20039;-62
2023/06/08 11:00:26;;;;;;;15.75;12.30;;;27.60;99.90;;;;;;5117371;28;20042;-62
2023/06/08 11:02:54;;;;;;;16.17;12.75;;;28.00;99.90;;;;;;5117243;28;20020;-62
2023/06/08 11:05:21;;;;;;;17.15;13.90;;;28.40;99.90;;;;;;5117326;28;20040;-62
2023/06/08 11:07:47;;;;;;;15.65;10.98;;;28.60;99.90;;;;;;5116815;28;20158;-62
2023/06/08 11:10:14;;;;;;;12.38;11.05;;;29.00;99.90;;;;;;5117245;28;20059;-62
2023/06/08 11:12:40;;;;;;;16.85;12.00;;;29.00;99.90;;;;;;5117160;28;20098;-62
2023/06/08 11:15:06;;;;;;;18.60;12.05;;;28.80;99.90;;;;;;5117149;28;20060;-62
2023/06/08 11:17:43;;;;;;;14.75;11.52;;;29.10;99.90;;;;;;5117322;28;20377;-62
2023/06/08 11:20:10;;;;;;;12.73;10.65;;;29.10;99.90;;;;;;5117006;28;20053;-62
2023/06/08 11:22:40;;;;;;;16.15;12.77;;;29.00;99.90;;;;;;5117207;28;20049;-62
2023/06/08 11:25:07;;;;;;;12.57;10.43;;;29.30;99.90;;;;;;5116922;28;20031;-62
2023/06/08 11:27:41;;;;;;;17.42;15.52;;;29.00;99.90;;;;;;5116646;28;20610;-62
2023/06/08 11:30:08;;;;;;;10.32;9.23;;;29.40;99.90;;;;;;5115218;28;20058;-62
2023/06/08 11:32:35;;;;;;;12.50;9.02;;;28.80;99.90;;;;;;5116718;28;20380;-62
2023/06/08 11:35:05;;;;;;;12.90;9.68;;;28.90;99.90;;;;;;5117083;28;20016;-62
2023/06/08 11:37:35;;;;;;;11.03;9.93;;;29.10;99.90;;;;;;5116741;28;20058;-62
2023/06/08 11:40:10;;;;;;;19.15;12.85;;;28.00;99.90;;;;;;5116985;28;20305;-62
2023/06/08 11:42:37;;;;;;;12.80;11.38;;;27.80;99.90;;;;;;5116600;28;20055;-62
2023/06/08 11:45:04;;;;;;;12.63;10.90;;;27.70;99.90;;;;;;5116417;28;20019;-62
2023/06/08 11:47:38;;;;;;;17.98;12.32;;;27.90;99.90;;;;;;5116500;28;20102;-62
2023/06/08 11:50:06;;;;;;;18.52;13.52;;;27.70;99.90;;;;;;5116419;28;20111;-62
2023/06/08 11:52:34;;;;;;;13.07;11.55;;;27.80;99.90;;;;;;5116343;28;20032;-62
2023/06/08 11:55:16;;;;;;;18.13;13.98;;;27.80;99.90;;;;;;5116399;28;20036;-62
2023/06/08 11:57:53;;;;;;;18.63;14.98;;;27.60;99.90;;;;;;5116133;28;20030;-62
2023/06/08 12:00:31;;;;;;;21.10;15.10;;;27.50;99.90;;;;;;5116439;28;20031;-62
2023/06/08 12:03:03;;;;;;;22.15;13.38;;;27.10;99.90;;;;;;5115610;28;20097;-62
2023/06/08 12:05:37;;;;;;;16.63;13.45;;;27.10;99.90;;;;;;5116050;28;20430;-62
2023/06/08 12:08:03;;;;;;;18.33;12.40;;;27.00;99.90;;;;;;5116091;28;20027;-62
2023/06/08 12:10:37;;;;;;;21.45;13.90;;;26.90;99.90;;;;;;5116034;28;20425;-62
2023/06/08 12:13:13;;;;;;;20.38;14.35;;;27.10;99.90;;;;;;5115995;28;20027;-62
2023/06/08 12:15:50;;;;;;;20.83;13.32;;;27.50;99.90;;;;;;5115949;28;20015;-62
2023/06/08 12:18:18;;;;;;;14.88;11.45;;;28.30;99.90;;;;;;5116064;28;20023;-62
2023/06/08 12:20:46;;;;;;;16.27;12.73;;;29.00;99.90;;;;;;5115855;28;20035;-62
2023/06/08 12:23:13;;;;;;;15.68;12.95;;;29.50;99.90;;;;;;5115748;28;20016;-62
2023/06/08 12:25:42;;;;;;;23.42;13.80;;;29.60;99.90;;;;;;5115851;28;20028;-63
2023/06/08 12:28:23;;;;;;;18.65;12.07;;;29.90;99.90;;;;;;5115435;28;20027;-63
2023/06/08 12:30:49;;;;;;;23.95;14.68;;;30.30;99.90;;;;;;5115757;28;20424;-63
2023/06/08 12:33:19;;;;;;;12.13;10.80;;;30.10;99.90;;;;;;5115544;28;20453;-63
2023/06/08 12:35:51;;;;;;;14.43;10.57;;;30.20;99.90;;;;;;5115089;28;20068;-63
2023/06/08 12:38:21;;;;;;;15.05;12.52;;;29.20;99.90;;;;;;5115410;28;20048;-62
2023/06/08 12:40:50;;;;;;;16.10;13.90;;;29.90;99.90;;;;;;5114847;28;20027;-63
2023/06/08 12:43:21;;;;;;;14.30;11.90;;;30.60;99.90;;;;;;5113904;28;20418;-63
2023/06/08 12:45:47;;;;;;;15.30;12.68;;;30.50;99.90;;;;;;5114880;28;20058;-63
2023/06/08 12:48:14;;;;;;;15.25;13.35;;;29.70;99.90;;;;;;5115468;28;20020;-63
2023/06/08 12:50:40;;;;;;;17.13;13.73;;;29.00;99.90;;;;;;5115128;28;20152;-62
2023/06/08 12:53:07;;;;;;;16.23;12.00;;;29.00;99.90;;;;;;5115195;28;20027;-62
2023/06/08 12:55:33;;;;;;;22.13;15.60;;;28.60;99.90;;;;;;5113787;28;20119;-62
2023/06/08 12:57:59;;;;;;;16.60;14.73;;;28.80;99.90;;;;;;5114676;28;20028;-62
2023/06/08 13:00:25;;;;;;;17.70;14.82;;;28.60;99.90;;;;;;5113948;28;20038;-62